Time;durP1;ratioP1;P1;durP2;ratioP2;P2;SDS_P1;SDS_P2;PMS_P1;PMS_P2;Temp;Humidity;BMP_temperature;BMP_pressure;BME280_temperature;BME280_humidity;BME280_pressure;Samples;Min_cycle;Max_cycle;Signal;HPM_P1;HPM_P2
2022/05/08 00:00:02;;;;;;;4.57;1.50;;;16.10;52.20;;;;;;5070273;28;20263;-79
2022/05/08 00:02:29;;;;;;;3.20;1.43;;;16.10;51.60;;;;;;5072063;28;20223;-75
2022/05/08 00:04:57;;;;;;;1.90;1.60;;;16.10;51.70;;;;;;5074979;28;20547;-77
2022/05/08 00:07:24;;;;;;;4.73;1.10;;;16.30;52.00;;;;;;5075860;28;20189;-79
2022/05/08 00:09:51;;;;;;;2.17;1.27;;;16.30;50.40;;;;;;5074970;28;20277;-75
2022/05/08 00:12:19;;;;;;;5.40;1.20;;;16.40;50.90;;;;;;5072964;28;20179;-74
2022/05/08 00:14:47;;;;;;;1.90;1.50;;;16.50;50.50;;;;;;5089132;28;20211;-75
2022/05/08 00:17:15;;;;;;;2.20;1.30;;;16.40;50.30;;;;;;5071132;28;20194;-81
2022/05/08 00:19:47;;;;;;;2.33;1.40;;;16.50;50.30;;;;;;5061131;28;20266;-75
2022/05/08 00:22:15;;;;;;;3.43;1.30;;;16.70;50.60;;;;;;5073382;28;20188;-78
2022/05/08 00:24:42;;;;;;;3.70;1.30;;;16.70;49.70;;;;;;5074746;28;20175;-76
2022/05/08 00:27:10;;;;;;;1.70;1.30;;;16.70;49.90;;;;;;5084715;28;20176;-75
2022/05/08 00:29:37;;;;;;;1.87;1.20;;;16.70;50.00;;;;;;5088227;28;20293;-73
2022/05/08 00:32:05;;;;;;;3.23;1.40;;;16.80;50.10;;;;;;5075134;28;20177;-80
2022/05/08 00:34:32;;;;;;;2.50;1.30;;;17.00;50.50;;;;;;5072224;28;20188;-75
2022/05/08 00:36:59;;;;;;;1.83;1.30;;;17.20;49.30;;;;;;5072699;28;20174;-77
2022/05/08 00:39:26;;;;;;;3.20;1.50;;;17.30;49.30;;;;;;5072430;28;20178;-77
2022/05/08 00:42:00;;;;;;;1.83;1.07;;;17.40;49.70;;;;;;5072397;28;20637;-76
2022/05/08 00:44:27;;;;;;;3.70;1.30;;;17.60;48.50;;;;;;5083795;28;20665;-81
2022/05/08 00:47:26;;;;;;;1.40;1.10;;;17.60;47.90;;;;;;5072949;28;20189;-78
2022/05/08 00:49:55;;;;;;;2.37;1.10;;;17.60;47.60;;;;;;5072468;28;20722;-77
2022/05/08 00:52:22;;;;;;;2.93;0.93;;;17.70;47.90;;;;;;5087900;28;20179;-77
2022/05/08 00:54:52;;;;;;;2.53;1.13;;;17.80;46.90;;;;;;5070349;28;20203;-84
2022/05/08 00:57:20;;;;;;;2.67;0.90;;;17.80;46.70;;;;;;5091058;28;20177;-76
2022/05/08 00:59:49;;;;;;;2.97;1.33;;;17.80;46.60;;;;;;5087793;28;20534;-76
2022/05/08 01:02:17;;;;;;;1.73;0.90;;;17.90;46.40;;;;;;5071361;28;20183;-77
2022/05/08 01:04:45;;;;;;;2.43;1.00;;;17.90;45.80;;;;;;5083291;28;20175;-76
2022/05/08 01:07:12;;;;;;;1.97;1.00;;;18.00;46.00;;;;;;5094016;28;20174;-76
2022/05/08 01:09:41;;;;;;;1.50;0.80;;;18.20;46.80;;;;;;5094780;28;20248;-74
2022/05/08 01:12:09;;;;;;;2.43;1.07;;;18.40;45.00;;;;;;5089062;28;20175;-74
2022/05/08 01:14:36;;;;;;;1.23;0.90;;;18.50;45.00;;;;;;5075755;28;20235;-78
2022/05/08 01:17:04;;;;;;;1.87;0.93;;;18.30;44.40;;;;;;5094014;28;20182;-78
2022/05/08 01:19:31;;;;;;;1.10;0.80;;;18.40;44.50;;;;;;5095762;28;20182;-78
2022/05/08 01:21:58;;;;;;;2.67;0.90;;;18.60;44.20;;;;;;5077581;28;20626;-76
2022/05/08 01:24:26;;;;;;;3.60;1.00;;;18.60;44.60;;;;;;5077755;28;20284;-76
2022/05/08 01:26:53;;;;;;;2.37;1.00;;;18.90;44.30;;;;;;5079703;28;20647;-76
2022/05/08 01:29:20;;;;;;;1.17;0.80;;;18.90;43.70;;;;;;5090488;28;20296;-80
2022/05/08 01:31:48;;;;;;;1.97;1.43;;;19.20;43.40;;;;;;5087441;28;20173;-79
2022/05/08 01:34:16;;;;;;;4.03;0.83;;;19.30;43.00;;;;;;5097750;28;20195;-81
2022/05/08 01:36:43;;;;;;;3.90;0.90;;;19.50;42.60;;;;;;5078777;28;20171;-80
2022/05/08 01:39:11;;;;;;;3.07;0.90;;;19.60;42.80;;;;;;5094413;28;20182;-85
2022/05/08 01:41:38;;;;;;;2.33;0.80;;;19.70;41.90;;;;;;5070149;28;20185;-78
2022/05/08 01:44:06;;;;;;;1.40;0.90;;;19.90;41.90;;;;;;5071554;28;20569;-78
2022/05/08 01:46:33;;;;;;;1.87;0.70;;;20.00;41.80;;;;;;5081997;28;20179;-76
2022/05/08 01:49:00;;;;;;;4.67;0.90;;;19.90;40.70;;;;;;5071231;28;20218;-78
2022/05/08 01:51:28;;;;;;;0.83;0.70;;;19.90;41.80;;;;;;5062078;28;20198;-78
2022/05/08 01:53:55;;;;;;;3.73;0.90;;;20.10;40.60;;;;;;5073700;28;20175;-78
2022/05/08 01:56:22;;;;;;;2.87;0.80;;;20.20;41.30;;;;;;5073617;28;20548;-77
2022/05/08 01:58:50;;;;;;;1.60;0.83;;;20.40;39.80;;;;;;5071447;28;20267;-79
2022/05/08 02:01:17;;;;;;;1.70;0.70;;;20.50;40.10;;;;;;5057957;28;20187;-82
2022/05/08 02:03:45;;;;;;;1.50;0.70;;;20.30;40.30;;;;;;5069643;28;20177;-82
2022/05/08 02:06:15;;;;;;;1.93;0.90;;;20.50;40.40;;;;;;5075162;28;20225;-83
2022/05/08 02:08:43;;;;;;;3.27;0.73;;;20.60;40.30;;;;;;5075577;28;20628;-76
2022/05/08 02:11:10;;;;;;;2.87;0.90;;;20.70;39.30;;;;;;5075528;28;20206;-82
2022/05/08 02:13:37;;;;;;;1.83;0.80;;;20.90;39.60;;;;;;5075095;28;20276;-81
2022/05/08 02:16:05;;;;;;;3.60;0.80;;;21.10;38.90;;;;;;5061325;28;20590;-78
2022/05/08 02:18:33;;;;;;;1.93;0.90;;;21.30;38.90;;;;;;5073572;28;20580;-80
2022/05/08 02:21:00;;;;;;;1.23;0.70;;;21.50;39.10;;;;;;5074377;28;20175;-78
2022/05/08 02:23:28;;;;;;;1.73;1.20;;;21.90;38.70;;;;;;5068174;28;20265;-75
2022/05/08 02:25:56;;;;;;;1.13;0.67;;;21.80;38.80;;;;;;5074220;28;20182;-78
2022/05/08 02:28:24;;;;;;;2.27;1.00;;;21.60;38.00;;;;;;5074177;28;20222;-79
2022/05/08 02:30:51;;;;;;;1.50;1.30;;;21.60;39.10;;;;;;5074510;28;20183;-78
2022/05/08 02:33:18;;;;;;;1.23;0.80;;;21.80;38.40;;;;;;5074125;28;20191;-77
2022/05/08 02:35:46;;;;;;;3.30;1.87;;;21.90;38.70;;;;;;5073569;28;20649;-77
2022/05/08 02:38:13;;;;;;;3.30;1.30;;;22.00;38.50;;;;;;5073541;28;20187;-80
2022/05/08 02:40:40;;;;;;;2.77;1.27;;;22.00;38.20;;;;;;5074349;28;20209;-78
2022/05/08 02:43:07;;;;;;;4.10;1.97;;;22.00;39.20;;;;;;5073549;28;20313;-78
2022/05/08 02:45:35;;;;;;;5.50;0.93;;;22.20;38.10;;;;;;5073063;28;20233;-77
2022/05/08 02:48:02;;;;;;;2.47;0.80;;;22.70;37.70;;;;;;5073562;28;20337;-76
2022/05/08 02:50:29;;;;;;;1.50;0.70;;;22.10;38.50;;;;;;5066847;28;20551;-76
2022/05/08 02:52:57;;;;;;;1.70;0.60;;;22.20;38.80;;;;;;5073357;28;20183;-82
2022/05/08 03:00:54;;;;;;;3.13;1.07;;;23.00;36.70;;;;;;5074269;28;20300;-79
2022/05/08 03:03:23;;;;;;;3.27;1.10;;;22.80;37.60;;;;;;5069864;28;20186;-81
2022/05/08 03:05:50;;;;;;;1.50;0.90;;;22.90;37.40;;;;;;5072762;28;20210;-75
2022/05/08 03:08:19;;;;;;;3.40;0.90;;;23.20;36.70;;;;;;5072353;28;20238;-78
2022/05/08 03:13:41;;;;;;;2.27;1.10;;;23.10;37.20;;;;;;5071166;28;20656;-83
2022/05/08 03:16:10;;;;;;;1.70;0.87;;;23.00;36.80;;;;;;5070940;28;20644;-77
2022/05/08 03:18:41;;;;;;;3.33;1.00;;;23.10;37.20;;;;;;5073607;28;20187;-76
2022/05/08 03:21:10;;;;;;;2.80;1.10;;;23.40;36.60;;;;;;5070485;28;20218;-77
2022/05/08 03:23:37;;;;;;;1.87;0.87;;;23.20;36.90;;;;;;5071724;28;20225;-77
2022/05/08 03:26:06;;;;;;;5.90;0.90;;;23.00;37.10;;;;;;5072923;28;20646;-77
2022/05/08 03:28:34;;;;;;;5.47;1.23;;;23.70;36.70;;;;;;5072932;28;20206;-77
2022/05/08 03:31:02;;;;;;;3.17;0.90;;;23.90;36.70;;;;;;5072943;28;20252;-77
2022/05/08 03:33:30;;;;;;;1.33;0.70;;;23.90;36.10;;;;;;5072406;28;20175;-77
2022/05/08 03:35:59;;;;;;;3.93;0.90;;;24.30;35.60;;;;;;5068075;28;20189;-77
2022/05/08 03:38:27;;;;;;;2.23;0.80;;;24.00;35.60;;;;;;5071573;28;20183;-78
2022/05/08 03:40:55;;;;;;;4.40;1.07;;;24.30;35.20;;;;;;5072575;28;20310;-77
2022/05/08 03:43:22;;;;;;;2.63;0.90;;;24.30;35.20;;;;;;5066867;28;20689;-79
2022/05/08 03:45:50;;;;;;;2.67;0.70;;;23.60;36.30;;;;;;5070926;28;20194;-78
2022/05/08 03:48:19;;;;;;;3.73;0.80;;;23.40;36.50;;;;;;5071781;28;20187;-77
2022/05/08 03:50:47;;;;;;;4.80;1.50;;;23.90;35.70;;;;;;5069356;28;20632;-77
2022/05/08 03:53:14;;;;;;;1.40;0.70;;;24.00;35.80;;;;;;5070188;28;20531;-80
2022/05/08 03:55:41;;;;;;;5.63;0.90;;;24.40;35.80;;;;;;5070396;28;20180;-78
2022/05/08 03:58:09;;;;;;;1.70;0.73;;;24.70;34.40;;;;;;5069408;28;20183;-78
2022/05/08 04:00:36;;;;;;;1.57;0.70;;;24.30;34.70;;;;;;5070966;28;20634;-79
2022/05/08 04:03:03;;;;;;;2.00;0.80;;;24.90;33.50;;;;;;5073315;28;20201;-80
2022/05/08 04:05:31;;;;;;;1.83;0.70;;;25.10;33.80;;;;;;5064078;28;20730;-80
2022/05/08 04:07:59;;;;;;;1.10;0.70;;;25.10;33.40;;;;;;5070169;28;20175;-79
2022/05/08 04:10:26;;;;;;;1.63;0.80;;;25.30;32.50;;;;;;5069124;28;20272;-76
2022/05/08 04:12:53;;;;;;;1.93;0.70;;;25.70;33.20;;;;;;5068069;28;20183;-74
2022/05/08 04:18:07;;;;;;;3.37;0.90;;;25.80;32.30;;;;;;5068819;28;20687;-80
2022/05/08 04:20:34;;;;;;;2.20;0.77;;;25.50;33.30;;;;;;5072452;28;20187;-76
2022/05/08 04:25:50;;;;;;;3.80;0.83;;;25.80;32.40;;;;;;5071345;28;20680;-75
2022/05/08 04:28:20;;;;;;;3.00;1.00;;;26.20;31.80;;;;;;5071978;28;20191;-76
2022/05/08 04:30:51;;;;;;;3.30;0.93;;;25.90;32.10;;;;;;5064810;28;20187;-77
2022/05/08 04:33:18;;;;;;;1.33;0.73;;;25.50;34.10;;;;;;5064299;28;20253;-79
2022/05/08 04:35:46;;;;;;;1.97;0.80;;;26.40;32.40;;;;;;5073260;28;20652;-76
2022/05/08 04:38:13;;;;;;;2.83;0.50;;;26.40;32.20;;;;;;5069542;28;20184;-75
2022/05/08 04:40:41;;;;;;;2.43;0.63;;;26.80;32.20;;;;;;5070960;28;20183;-78
2022/05/08 04:43:08;;;;;;;1.50;0.70;;;26.80;31.40;;;;;;5055737;28;20228;-74
2022/05/08 04:45:36;;;;;;;0.93;0.50;;;26.60;31.80;;;;;;5086537;28;20641;-77
2022/05/08 04:48:04;;;;;;;4.17;0.80;;;26.80;31.40;;;;;;5077595;28;20179;-76
2022/05/08 04:50:32;;;;;;;2.77;0.73;;;26.80;31.50;;;;;;5072003;28;20187;-76
2022/05/08 04:52:59;;;;;;;2.83;0.57;;;26.50;32.40;;;;;;5072586;28;20189;-77
2022/05/08 04:55:26;;;;;;;2.13;0.70;;;26.50;31.60;;;;;;5072639;28;20167;-74
2022/05/08 04:57:54;;;;;;;0.77;0.60;;;26.30;32.60;;;;;;5072485;28;20163;-77
2022/05/08 05:00:21;;;;;;;1.47;0.80;;;26.40;32.30;;;;;;5074399;28;20194;-75
2022/05/08 05:02:49;;;;;;;1.93;0.80;;;26.40;32.60;;;;;;5072124;28;20240;-77
2022/05/08 05:05:16;;;;;;;3.37;0.70;;;26.50;32.00;;;;;;5075297;28;20249;-78
2022/05/08 05:07:44;;;;;;;1.77;0.80;;;27.00;31.90;;;;;;5083611;28;20581;-75
2022/05/08 05:10:12;;;;;;;4.23;0.70;;;26.50;31.80;;;;;;5075423;28;20218;-78
2022/05/08 05:12:40;;;;;;;0.97;0.67;;;25.90;33.30;;;;;;5076473;28;20193;-74
2022/05/08 05:15:08;;;;;;;1.93;0.67;;;27.00;31.30;;;;;;5092693;28;20187;-74
2022/05/08 05:17:36;;;;;;;1.40;0.63;;;26.30;32.60;;;;;;5087362;28;20179;-75
2022/05/08 05:20:04;;;;;;;0.93;0.50;;;26.90;31.50;;;;;;5078098;28;20269;-76
2022/05/08 05:22:31;;;;;;;2.77;0.80;;;26.80;32.00;;;;;;5071777;28;20179;-75
2022/05/08 05:24:59;;;;;;;1.60;0.70;;;26.70;31.80;;;;;;5071480;28;20266;-75
2022/05/08 05:27:27;;;;;;;1.47;0.77;;;26.50;32.10;;;;;;5071816;28;20171;-76
2022/05/08 05:29:54;;;;;;;2.47;0.60;;;26.10;32.50;;;;;;5077893;28;20225;-77
2022/05/08 05:32:22;;;;;;;3.07;0.73;;;26.30;32.10;;;;;;5085725;28;20171;-75
2022/05/08 05:34:49;;;;;;;5.50;0.97;;;26.60;32.30;;;;;;5076238;28;20233;-78
2022/05/08 05:37:16;;;;;;;1.37;0.50;;;26.90;31.70;;;;;;5083769;28;20182;-76
2022/05/08 05:39:44;;;;;;;2.43;0.90;;;27.20;30.90;;;;;;5080019;28;20180;-75
2022/05/08 05:42:11;;;;;;;1.10;0.60;;;26.80;31.10;;;;;;5072058;28;20693;-78
2022/05/08 05:44:39;;;;;;;2.53;0.60;;;26.80;31.40;;;;;;5062742;28;20273;-75
2022/05/08 05:49:52;;;;;;;1.30;0.53;;;26.40;32.30;;;;;;5070987;28;20222;-78
2022/05/08 05:52:19;;;;;;;0.83;0.50;;;26.40;32.50;;;;;;5072227;28;20187;-77
2022/05/08 05:54:47;;;;;;;1.90;0.60;;;26.50;32.30;;;;;;5074681;28;20538;-76
2022/05/08 05:57:14;;;;;;;1.77;0.50;;;26.30;32.80;;;;;;5074771;28;20184;-75
2022/05/08 05:59:41;;;;;;;0.80;0.50;;;25.60;34.10;;;;;;5083052;28;20178;-76
2022/05/08 06:02:09;;;;;;;3.90;0.77;;;25.60;33.60;;;;;;5074086;28;20550;-76
2022/05/08 06:04:36;;;;;;;1.83;0.60;;;25.50;34.00;;;;;;5075374;28;20175;-76
2022/05/08 06:07:04;;;;;;;3.30;0.70;;;25.30;34.00;;;;;;5075316;28;20175;-75
2022/05/08 06:09:32;;;;;;;3.53;0.60;;;24.40;35.70;;;;;;5074250;28;20222;-77
2022/05/08 06:11:59;;;;;;;3.00;0.70;;;23.40;37.40;;;;;;5075110;28;20246;-76
2022/05/08 06:14:26;;;;;;;1.63;0.70;;;22.40;39.60;;;;;;5075039;28;20179;-75
2022/05/08 06:16:55;;;;;;;2.33;0.60;;;21.80;41.10;;;;;;5071229;28;20630;-76
2022/05/08 06:19:22;;;;;;;2.13;0.53;;;21.40;42.00;;;;;;5066718;28;20218;-74
2022/05/08 06:21:49;;;;;;;1.83;0.80;;;21.00;42.90;;;;;;5074467;28;20700;-76
2022/05/08 06:24:17;;;;;;;1.37;0.70;;;20.80;43.20;;;;;;5073411;28;20529;-75
2022/05/08 06:26:45;;;;;;;1.67;0.70;;;20.70;43.50;;;;;;5067650;28;20187;-74
2022/05/08 06:29:12;;;;;;;0.80;0.60;;;20.40;44.40;;;;;;5070430;28;20703;-76
2022/05/08 06:31:39;;;;;;;2.43;0.90;;;20.40;44.70;;;;;;5074467;28;20210;-76
2022/05/08 06:34:08;;;;;;;1.00;0.70;;;20.20;45.20;;;;;;5073145;28;20203;-75
2022/05/08 06:36:35;;;;;;;2.37;0.70;;;20.10;45.50;;;;;;5069574;28;20186;-76
2022/05/08 06:39:03;;;;;;;1.77;0.77;;;19.90;45.80;;;;;;5071292;28;20189;-75
2022/05/08 06:41:30;;;;;;;5.20;1.10;;;19.80;46.30;;;;;;5070802;28;20198;-75
2022/05/08 06:43:57;;;;;;;1.13;0.70;;;19.60;47.00;;;;;;5071299;28;21259;-76
2022/05/08 06:46:25;;;;;;;1.67;1.03;;;19.40;47.00;;;;;;5069882;28;20233;-76
2022/05/08 06:48:52;;;;;;;2.57;1.00;;;19.30;47.20;;;;;;5069519;28;20637;-77
2022/05/08 06:51:19;;;;;;;3.67;2.40;;;19.10;48.00;;;;;;5074831;28;20194;-77
2022/05/08 06:53:47;;;;;;;2.07;1.20;;;19.10;48.60;;;;;;5074930;28;20186;-77
2022/05/08 06:56:16;;;;;;;1.63;0.97;;;18.90;48.80;;;;;;5071039;28;20294;-77
2022/05/08 07:01:35;;;;;;;3.10;1.33;;;18.80;49.20;;;;;;5073864;28;20198;-76
2022/05/08 07:04:03;;;;;;;2.53;1.20;;;18.80;48.90;;;;;;5077662;28;20339;-76
2022/05/08 07:06:31;;;;;;;3.53;1.40;;;18.60;50.20;;;;;;5070843;28;20598;-77
2022/05/08 07:08:59;;;;;;;2.37;1.30;;;18.50;50.10;;;;;;5073959;28;20199;-77
2022/05/08 07:11:26;;;;;;;3.23;1.10;;;18.40;50.70;;;;;;5073501;28;20251;-76
2022/05/08 07:13:56;;;;;;;3.17;1.57;;;18.30;51.30;;;;;;5069609;28;20224;-77
2022/05/08 07:16:27;;;;;;;3.37;1.13;;;18.30;51.90;;;;;;5073008;28;20642;-76
2022/05/08 07:18:55;;;;;;;4.20;1.60;;;18.20;52.20;;;;;;5083346;28;20549;-76
2022/05/08 07:21:22;;;;;;;4.00;1.30;;;18.20;52.10;;;;;;5077507;28;20244;-77
2022/05/08 07:23:49;;;;;;;4.27;1.30;;;18.10;52.20;;;;;;5073155;28;20665;-77
2022/05/08 07:26:17;;;;;;;1.97;1.17;;;18.00;52.10;;;;;;5067852;28;20179;-75
2022/05/08 07:28:44;;;;;;;3.57;1.50;;;17.90;51.90;;;;;;5073502;28;20763;-78
2022/05/08 07:31:12;;;;;;;5.13;1.63;;;17.80;52.20;;;;;;5070092;28;20190;-78
2022/05/08 07:33:39;;;;;;;2.20;1.50;;;17.80;52.50;;;;;;5064210;28;20256;-78
2022/05/08 07:36:13;;;;;;;4.47;1.80;;;17.80;53.70;;;;;;5066545;28;20183;-78
2022/05/08 07:38:45;;;;;;;2.80;1.53;;;17.70;53.80;;;;;;5084981;28;20187;-77
2022/05/08 07:41:15;;;;;;;6.03;1.40;;;17.50;54.50;;;;;;5072220;28;20180;-77
2022/05/08 07:43:47;;;;;;;4.13;1.60;;;17.50;55.20;;;;;;5066830;28;20284;-77
2022/05/08 07:46:15;;;;;;;4.50;1.40;;;17.40;55.50;;;;;;5072232;28;20660;-77
2022/05/08 07:48:42;;;;;;;1.97;1.30;;;17.30;55.80;;;;;;5085245;28;20209;-77
2022/05/08 07:51:10;;;;;;;3.80;1.30;;;17.20;55.50;;;;;;5076192;28;20258;-77
2022/05/08 07:53:37;;;;;;;5.80;1.33;;;17.20;55.40;;;;;;5072453;28;20175;-77
2022/05/08 07:56:05;;;;;;;3.27;1.53;;;17.20;56.00;;;;;;5080633;28;20684;-77
2022/05/08 07:58:32;;;;;;;6.67;1.80;;;17.10;56.50;;;;;;5073369;28;20184;-77
2022/05/08 08:01:00;;;;;;;3.87;2.30;;;17.00;57.40;;;;;;5081787;28;20187;-77
2022/05/08 08:03:32;;;;;;;6.53;2.30;;;17.00;57.50;;;;;;5079474;28;20236;-78
2022/05/08 08:06:01;;;;;;;6.53;3.30;;;17.00;58.20;;;;;;5073457;28;20269;-77
2022/05/08 08:08:29;;;;;;;8.87;3.87;;;16.90;57.60;;;;;;5072827;28;20223;-77
2022/05/08 08:11:01;;;;;;;10.90;4.87;;;16.80;58.70;;;;;;5087014;28;20187;-77
2022/05/08 08:13:29;;;;;;;9.33;4.20;;;16.80;58.30;;;;;;5087921;28;20179;-77
2022/05/08 08:15:57;;;;;;;9.63;5.87;;;16.80;58.20;;;;;;5072125;28;20512;-77
2022/05/08 08:18:24;;;;;;;11.00;5.20;;;16.70;59.10;;;;;;5071187;28;20258;-77
2022/05/08 08:20:52;;;;;;;7.50;3.90;;;16.70;59.10;;;;;;5092369;28;20247;-77
2022/05/08 08:23:19;;;;;;;8.40;3.80;;;16.70;58.70;;;;;;5073403;28;20598;-77
2022/05/08 08:25:47;;;;;;;7.20;3.70;;;16.70;59.00;;;;;;5076944;28;20185;-77
2022/05/08 08:28:14;;;;;;;10.37;5.97;;;16.60;59.00;;;;;;5083027;28;20178;-77
2022/05/08 08:30:41;;;;;;;6.83;3.53;;;16.60;59.40;;;;;;5093280;28;20639;-77
2022/05/08 08:33:09;;;;;;;9.57;4.47;;;16.50;59.80;;;;;;5091129;28;20243;-77
2022/05/08 08:35:36;;;;;;;9.37;4.77;;;16.50;61.10;;;;;;5093039;28;20167;-74
2022/05/08 08:38:04;;;;;;;8.47;5.67;;;16.50;60.80;;;;;;5087652;28;20182;-77
2022/05/08 08:40:34;;;;;;;10.07;6.73;;;16.50;60.80;;;;;;5074005;28;20186;-77
2022/05/08 08:43:02;;;;;;;12.57;7.83;;;16.50;61.10;;;;;;5084304;28;20346;-77
2022/05/08 08:48:43;;;;;;;13.00;8.30;;;16.40;62.10;;;;;;5081518;28;20671;-76
2022/05/08 08:51:12;;;;;;;14.10;7.73;;;16.30;62.10;;;;;;5071970;28;20274;-76
2022/05/08 08:53:40;;;;;;;13.50;7.30;;;16.30;62.20;;;;;;5068114;28;20190;-77
2022/05/08 08:56:07;;;;;;;9.03;5.47;;;16.20;62.20;;;;;;5075077;28;20435;-76
2022/05/08 08:58:35;;;;;;;8.07;4.27;;;16.10;61.60;;;;;;5080201;28;20212;-76
2022/05/08 09:01:02;;;;;;;9.00;4.50;;;16.00;61.40;;;;;;5072034;28;20186;-76
2022/05/08 09:03:30;;;;;;;9.50;5.27;;;16.00;61.80;;;;;;5090003;28;20186;-77
2022/05/08 09:05:59;;;;;;;11.50;5.93;;;15.90;63.40;;;;;;5092569;28;20163;-76
2022/05/08 09:08:37;;;;;;;12.53;7.13;;;15.90;64.60;;;;;;5086350;28;20175;-76
2022/05/08 09:11:04;;;;;;;11.93;7.50;;;15.80;65.40;;;;;;5071215;28;20188;-78
2022/05/08 09:13:34;;;;;;;15.00;8.27;;;15.70;66.20;;;;;;5072769;28;20178;-78
2022/05/08 09:16:04;;;;;;;14.40;8.03;;;15.70;66.70;;;;;;5072352;28;20202;-76
2022/05/08 09:18:44;;;;;;;11.43;7.60;;;15.60;67.20;;;;;;5090439;28;20225;-77
2022/05/08 09:24:13;;;;;;;11.50;7.10;;;15.50;66.90;;;;;;5086041;28;20190;-76
2022/05/08 09:26:41;;;;;;;10.40;6.80;;;15.40;66.40;;;;;;5085803;28;20188;-76
2022/05/08 09:29:19;;;;;;;11.87;7.87;;;15.30;65.90;;;;;;5094812;28;20609;-77
2022/05/08 09:31:47;;;;;;;12.27;7.00;;;15.30;66.10;;;;;;5084588;28;20185;-77
2022/05/08 09:34:14;;;;;;;9.00;6.50;;;15.30;66.30;;;;;;5076201;28;20175;-76
2022/05/08 09:36:42;;;;;;;14.03;6.93;;;15.30;65.90;;;;;;5074282;28;20666;-76
2022/05/08 09:39:09;;;;;;;11.33;6.60;;;15.30;65.50;;;;;;5095276;28;20190;-74
2022/05/08 09:41:38;;;;;;;11.00;6.63;;;15.30;65.20;;;;;;5072897;28;20215;-74
2022/05/08 09:44:14;;;;;;;11.43;6.40;;;15.30;65.40;;;;;;5075642;28;20676;-74
2022/05/08 09:46:49;;;;;;;12.73;7.23;;;15.20;66.00;;;;;;5079300;28;20186;-74
2022/05/08 09:49:21;;;;;;;14.30;7.93;;;15.20;66.80;;;;;;5075282;28;20210;-74
2022/05/08 09:51:49;;;;;;;13.20;8.07;;;15.20;67.20;;;;;;5073711;28;20191;-74
2022/05/08 09:54:18;;;;;;;11.10;7.20;;;15.20;67.30;;;;;;5072694;28;20584;-73
2022/05/08 09:56:51;;;;;;;12.37;7.23;;;15.20;67.80;;;;;;5080713;28;21048;-74
2022/05/08 09:59:22;;;;;;;13.00;8.37;;;15.20;68.30;;;;;;5088776;28;20268;-74
2022/05/08 10:01:49;;;;;;;13.53;7.93;;;15.10;68.50;;;;;;5072476;28;20208;-74
2022/05/08 10:04:16;;;;;;;13.33;8.90;;;15.10;68.90;;;;;;5087529;28;20239;-74
2022/05/08 10:06:44;;;;;;;16.20;8.87;;;15.20;69.60;;;;;;5089910;28;20647;-74
2022/05/08 10:14:49;;;;;;;14.87;8.53;;;15.00;69.50;;;;;;5095118;28;20189;-74
2022/05/08 10:17:32;;;;;;;12.40;7.90;;;14.90;69.00;;;;;;5088036;28;20205;-74
2022/05/08 10:20:00;;;;;;;11.50;7.20;;;14.80;68.90;;;;;;5090437;28;20179;-74
2022/05/08 10:22:48;;;;;;;13.00;7.07;;;14.80;68.50;;;;;;5088450;28;20182;-75
2022/05/08 10:25:16;;;;;;;11.53;6.83;;;14.80;68.60;;;;;;5093830;28;20549;-74
2022/05/08 10:28:06;;;;;;;10.60;6.70;;;14.80;68.60;;;;;;5083467;28;20556;-75
2022/05/08 10:30:34;;;;;;;9.00;6.30;;;14.80;68.80;;;;;;5095699;28;20228;-74
2022/05/08 10:33:02;;;;;;;11.13;6.70;;;14.80;69.30;;;;;;5093381;28;20231;-74
2022/05/08 10:35:31;;;;;;;11.47;7.20;;;14.70;69.40;;;;;;5094171;28;20684;-74
2022/05/08 10:38:04;;;;;;;13.63;7.47;;;14.70;69.70;;;;;;5078740;28;20183;-75
2022/05/08 10:40:33;;;;;;;10.67;6.70;;;14.70;69.70;;;;;;5074459;28;20308;-74
2022/05/08 10:43:25;;;;;;;10.67;6.83;;;14.70;70.00;;;;;;5074350;28;20232;-74
2022/05/08 10:45:53;;;;;;;13.23;7.10;;;14.70;70.70;;;;;;5073553;28;20179;-74
2022/05/08 10:48:22;;;;;;;10.60;6.60;;;14.60;70.60;;;;;;5074558;28;20175;-74
2022/05/08 10:50:51;;;;;;;14.23;7.37;;;14.60;71.00;;;;;;5073628;28;20191;-74
2022/05/08 10:53:28;;;;;;;12.40;8.13;;;14.70;70.60;;;;;;5078335;28;20645;-74
2022/05/08 10:56:05;;;;;;;10.43;7.30;;;14.60;71.00;;;;;;5077624;28;20319;-74
2022/05/08 10:58:34;;;;;;;13.13;8.67;;;14.60;71.20;;;;;;5094342;28;20701;-74
2022/05/08 11:01:06;;;;;;;15.40;9.17;;;14.50;71.60;;;;;;5077538;28;20181;-74
2022/05/08 11:03:37;;;;;;;14.17;9.40;;;14.40;71.80;;;;;;5074657;28;20177;-74
2022/05/08 11:06:06;;;;;;;17.60;8.77;;;14.40;72.20;;;;;;5088373;28;20665;-75
2022/05/08 11:08:36;;;;;;;14.10;7.97;;;14.30;72.90;;;;;;5095267;28;20662;-74
2022/05/08 11:11:12;;;;;;;13.67;8.40;;;14.30;73.00;;;;;;5083443;28;20197;-74
2022/05/08 11:13:49;;;;;;;11.27;7.17;;;14.30;73.90;;;;;;5072652;28;20187;-74
2022/05/08 11:16:37;;;;;;;14.30;8.47;;;14.30;73.80;;;;;;5058944;28;20256;-74
2022/05/08 11:19:05;;;;;;;13.50;8.87;;;14.30;74.20;;;;;;5093968;28;20170;-75
2022/05/08 11:21:33;;;;;;;14.90;9.07;;;14.30;74.80;;;;;;5088575;28;20179;-74
2022/05/08 11:24:03;;;;;;;13.17;8.37;;;14.30;74.80;;;;;;5073579;28;20268;-73
2022/05/08 11:26:36;;;;;;;15.87;8.50;;;14.30;74.80;;;;;;5088206;28;20188;-75
2022/05/08 11:29:04;;;;;;;13.90;8.47;;;14.30;75.50;;;;;;5063168;28;20225;-75
2022/05/08 11:31:35;;;;;;;15.20;7.63;;;14.30;75.80;;;;;;5072288;28;20183;-75
2022/05/08 11:36:48;;;;;;;14.73;8.40;;;14.50;76.70;;;;;;5062820;28;20271;-75
2022/05/08 11:39:18;;;;;;;14.17;8.27;;;14.70;76.20;;;;;;5091297;28;20780;-74
2022/05/08 11:41:49;;;;;;;14.50;8.33;;;14.70;75.90;;;;;;5068197;28;20187;-75
2022/05/08 11:44:17;;;;;;;17.60;8.43;;;14.80;76.20;;;;;;5079557;28;20183;-74
2022/05/08 11:46:50;;;;;;;13.03;7.90;;;14.80;76.30;;;;;;5080835;28;20180;-74
2022/05/08 11:49:20;;;;;;;11.53;7.97;;;14.90;76.60;;;;;;5081006;28;20620;-74
2022/05/08 11:51:50;;;;;;;16.30;7.90;;;15.00;76.50;;;;;;5072463;28;20181;-75
2022/05/08 11:54:32;;;;;;;17.73;8.17;;;15.00;76.20;;;;;;5073099;28;20262;-75
2022/05/08 11:57:19;;;;;;;15.43;8.30;;;15.00;76.00;;;;;;5070192;28;20549;-75
2022/05/08 11:59:51;;;;;;;13.17;8.20;;;15.10;76.00;;;;;;5073702;28;20183;-74
2022/05/08 12:02:38;;;;;;;12.37;8.03;;;15.00;75.50;;;;;;5073691;28;20170;-75
2022/05/08 12:05:07;;;;;;;14.00;7.17;;;15.10;75.50;;;;;;5084774;28;20676;-74
2022/05/08 12:07:42;;;;;;;17.30;7.97;;;15.10;74.90;;;;;;5085067;28;20191;-75
2022/05/08 12:10:10;;;;;;;18.97;8.07;;;15.00;74.30;;;;;;5079342;28;20548;-74
2022/05/08 12:12:38;;;;;;;11.97;7.73;;;15.00;74.80;;;;;;5076158;28;20191;-74
2022/05/08 12:15:10;;;;;;;14.63;8.17;;;15.00;74.40;;;;;;5073483;28;20183;-75
2022/05/08 12:17:43;;;;;;;16.50;7.80;;;14.90;74.00;;;;;;5073090;28;20183;-75
2022/05/08 12:20:13;;;;;;;13.73;7.70;;;14.80;73.60;;;;;;5073085;28;20186;-74
2022/05/08 12:22:41;;;;;;;13.97;7.33;;;14.70;74.30;;;;;;5073221;28;20222;-74
2022/05/08 12:25:09;;;;;;;12.40;7.40;;;14.70;73.60;;;;;;5078756;28;20182;-75
2022/05/08 12:27:36;;;;;;;12.70;7.03;;;14.60;74.20;;;;;;5081542;28;20711;-75
2022/05/08 12:30:09;;;;;;;9.43;6.03;;;14.50;74.00;;;;;;5072440;28;20689;-75
2022/05/08 12:32:37;;;;;;;13.00;6.60;;;14.40;73.90;;;;;;5072719;28;20677;-74
2022/05/08 12:35:05;;;;;;;10.87;6.97;;;14.40;74.10;;;;;;5057055;28;20196;-75
2022/05/08 12:37:32;;;;;;;8.37;5.77;;;14.40;74.20;;;;;;5052848;28;20175;-74
2022/05/08 12:40:00;;;;;;;10.20;5.97;;;14.30;74.10;;;;;;5052890;28;20244;-74
2022/05/08 12:42:27;;;;;;;8.47;6.13;;;14.30;74.30;;;;;;5063497;28;20222;-73
2022/05/08 12:44:54;;;;;;;11.73;6.07;;;14.40;74.40;;;;;;5073524;28;20175;-74
2022/05/08 12:47:22;;;;;;;12.47;6.43;;;14.40;74.30;;;;;;5072521;28;20233;-74
2022/05/08 12:49:49;;;;;;;12.67;6.03;;;14.50;74.70;;;;;;5072315;28;20208;-75
2022/05/08 12:52:17;;;;;;;13.40;6.57;;;14.50;74.20;;;;;;5072684;28;20176;-74
2022/05/08 12:54:45;;;;;;;10.60;6.50;;;14.50;73.60;;;;;;5064088;28;20207;-74
2022/05/08 12:59:42;;;;;;;12.00;6.53;;;14.60;73.40;;;;;;5063600;28;20174;-75
2022/05/08 13:00:00;;;;;;;11.30;5.80;;;14.70;73.90;;;;;;5071584;28;20627;-75
2022/05/08 13:02:27;;;;;;;11.80;5.07;;;14.60;73.20;;;;;;5070966;28;20175;-75
2022/05/08 13:04:55;;;;;;;14.93;5.57;;;14.50;72.20;;;;;;5072385;28;20176;-75
2022/05/08 13:07:22;;;;;;;10.70;5.40;;;14.40;73.40;;;;;;5071887;28;20183;-75
2022/05/08 13:09:50;;;;;;;6.23;4.60;;;14.40;72.90;;;;;;5072397;28;20218;-75
2022/05/08 13:12:17;;;;;;;14.87;9.60;;;14.30;73.00;;;;;;5072259;28;20175;-76
2022/05/08 13:14:45;;;;;;;9.70;5.90;;;14.20;73.80;;;;;;5072662;28;20175;-76
2022/05/08 13:17:12;;;;;;;6.13;3.70;;;14.30;74.30;;;;;;5072027;28;20190;-74
2022/05/08 13:19:39;;;;;;;9.50;4.10;;;14.30;73.90;;;;;;5071960;28;20180;-74
2022/05/08 13:22:08;;;;;;;7.00;4.00;;;14.30;73.60;;;;;;5072077;28;20179;-75
2022/05/08 13:24:35;;;;;;;8.27;4.13;;;14.30;73.60;;;;;;5072650;28;20228;-73